sensor_id;sensor_type;location;lat;lon;timestamp;P1;durP1;ratioP1;P2;durP2;ratioP2
12110;SDS011;6119;52.372;8.990;2023-03-01T00:00:14;6.27;;;5.17;;
12110;SDS011;6119;52.372;8.990;2023-03-01T00:03:01;8.77;;;5.27;;
12110;SDS011;6119;52.372;8.990;2023-03-01T00:05:48;7.07;;;5.10;;
12110;SDS011;6119;52.372;8.990;2023-03-01T00:08:35;7.23;;;4.80;;
12110;SDS011;6119;52.372;8.990;2023-03-01T00:11:23;6.60;;;4.93;;
12110;SDS011;6119;52.372;8.990;2023-03-01T00:14:10;7.20;;;4.27;;
12110;SDS011;6119;52.372;8.990;2023-03-01T00:16:57;7.67;;;4.63;;
12110;SDS011;6119;52.372;8.990;2023-03-01T00:19:44;9.10;;;4.80;;
12110;SDS011;6119;52.372;8.990;2023-03-01T00:22:31;5.93;;;4.67;;
12110;SDS011;6119;52.372;8.990;2023-03-01T00:25:18;4.93;;;4.27;;
12110;SDS011;6119;52.372;8.990;2023-03-01T00:28:05;5.93;;;4.20;;
12110;SDS011;6119;52.372;8.990;2023-03-01T00:30:51;7.93;;;4.60;;
12110;SDS011;6119;52.372;8.990;2023-03-01T00:33:38;6.80;;;4.70;;
12110;SDS011;6119;52.372;8.990;2023-03-01T00:36:25;7.40;;;4.77;;
12110;SDS011;6119;52.372;8.990;2023-03-01T00:39:15;6.83;;;4.13;;
12110;SDS011;6119;52.372;8.990;2023-03-01T00:42:02;6.13;;;4.53;;
12110;SDS011;6119;52.372;8.990;2023-03-01T00:44:48;6.00;;;4.50;;
12110;SDS011;6119;52.372;8.990;2023-03-01T00:47:35;6.10;;;4.30;;
12110;SDS011;6119;52.372;8.990;2023-03-01T00:50:21;5.90;;;4.27;;
12110;SDS011;6119;52.372;8.990;2023-03-01T00:53:09;6.53;;;4.17;;
12110;SDS011;6119;52.372;8.990;2023-03-01T00:55:57;6.70;;;4.47;;
12110;SDS011;6119;52.372;8.990;2023-03-01T00:58:44;8.60;;;4.10;;
12110;SDS011;6119;52.372;8.990;2023-03-01T01:01:31;8.60;;;5.00;;
12110;SDS011;6119;52.372;8.990;2023-03-01T01:04:17;5.10;;;4.23;;
12110;SDS011;6119;52.372;8.990;2023-03-01T01:07:04;7.23;;;4.83;;
12110;SDS011;6119;52.372;8.990;2023-03-01T01:09:51;5.60;;;4.00;;
12110;SDS011;6119;52.372;8.990;2023-03-01T01:12:39;6.83;;;5.00;;
12110;SDS011;6119;52.372;8.990;2023-03-01T01:15:26;10.23;;;4.70;;
12110;SDS011;6119;52.372;8.990;2023-03-01T01:18:13;8.13;;;4.47;;
12110;SDS011;6119;52.372;8.990;2023-03-01T01:21:02;6.93;;;4.47;;
12110;SDS011;6119;52.372;8.990;2023-03-01T01:23:50;7.50;;;4.53;;
12110;SDS011;6119;52.372;8.990;2023-03-01T01:26:36;4.17;;;3.77;;
12110;SDS011;6119;52.372;8.990;2023-03-01T01:29:24;5.87;;;4.00;;
12110;SDS011;6119;52.372;8.990;2023-03-01T01:32:11;8.90;;;4.33;;
12110;SDS011;6119;52.372;8.990;2023-03-01T01:34:58;6.60;;;4.10;;
12110;SDS011;6119;52.372;8.990;2023-03-01T01:37:44;5.47;;;4.33;;
12110;SDS011;6119;52.372;8.990;2023-03-01T01:40:31;7.80;;;4.60;;
12110;SDS011;6119;52.372;8.990;2023-03-01T01:43:21;9.77;;;4.93;;
12110;SDS011;6119;52.372;8.990;2023-03-01T01:46:13;7.13;;;4.50;;
12110;SDS011;6119;52.372;8.990;2023-03-01T01:49:19;5.80;;;4.43;;
12110;SDS011;6119;52.372;8.990;2023-03-01T01:52:11;5.67;;;4.47;;
12110;SDS011;6119;52.372;8.990;2023-03-01T01:55:02;7.07;;;4.57;;
12110;SDS011;6119;52.372;8.990;2023-03-01T01:57:52;8.60;;;4.60;;
12110;SDS011;6119;52.372;8.990;2023-03-01T02:00:41;7.23;;;4.40;;
12110;SDS011;6119;52.372;8.990;2023-03-01T02:03:31;8.53;;;5.00;;
12110;SDS011;6119;52.372;8.990;2023-03-01T02:06:24;6.60;;;4.43;;
12110;SDS011;6119;52.372;8.990;2023-03-01T02:09:15;5.70;;;4.37;;
12110;SDS011;6119;52.372;8.990;2023-03-01T02:12:04;5.90;;;4.33;;
12110;SDS011;6119;52.372;8.990;2023-03-01T02:14:51;7.03;;;4.50;;
12110;SDS011;6119;52.372;8.990;2023-03-01T02:17:38;7.73;;;4.83;;
12110;SDS011;6119;52.372;8.990;2023-03-01T02:20:26;8.63;;;4.70;;
12110;SDS011;6119;52.372;8.990;2023-03-01T02:23:19;7.43;;;4.60;;
12110;SDS011;6119;52.372;8.990;2023-03-01T02:26:07;7.40;;;5.00;;
12110;SDS011;6119;52.372;8.990;2023-03-01T02:29:00;8.50;;;4.50;;
12110;SDS011;6119;52.372;8.990;2023-03-01T02:31:47;7.00;;;4.47;;
12110;SDS011;6119;52.372;8.990;2023-03-01T02:34:34;6.73;;;4.87;;
12110;SDS011;6119;52.372;8.990;2023-03-01T02:37:21;7.93;;;4.37;;
12110;SDS011;6119;52.372;8.990;2023-03-01T02:40:11;8.53;;;4.77;;
12110;SDS011;6119;52.372;8.990;2023-03-01T02:43:01;7.07;;;4.87;;
12110;SDS011;6119;52.372;8.990;2023-03-01T02:45:53;6.43;;;4.20;;
12110;SDS011;6119;52.372;8.990;2023-03-01T02:48:44;7.17;;;4.63;;
12110;SDS011;6119;52.372;8.990;2023-03-01T02:51:40;8.23;;;5.20;;
12110;SDS011;6119;52.372;8.990;2023-03-01T02:54:33;8.33;;;4.67;;
12110;SDS011;6119;52.372;8.990;2023-03-01T02:57:25;5.37;;;4.30;;
12110;SDS011;6119;52.372;8.990;2023-03-01T03:00:15;8.07;;;4.37;;
12110;SDS011;6119;52.372;8.990;2023-03-01T03:03:06;6.97;;;4.90;;
12110;SDS011;6119;52.372;8.990;2023-03-01T03:05:54;6.80;;;4.80;;
12110;SDS011;6119;52.372;8.990;2023-03-01T03:08:40;9.30;;;5.20;;
12110;SDS011;6119;52.372;8.990;2023-03-01T03:11:28;7.73;;;4.57;;
12110;SDS011;6119;52.372;8.990;2023-03-01T03:14:16;8.13;;;5.50;;
12110;SDS011;6119;52.372;8.990;2023-03-01T03:17:03;9.30;;;6.00;;
12110;SDS011;6119;52.372;8.990;2023-03-01T03:19:52;8.33;;;5.37;;
12110;SDS011;6119;52.372;8.990;2023-03-01T03:22:39;8.63;;;5.77;;
12110;SDS011;6119;52.372;8.990;2023-03-01T03:25:26;8.93;;;5.80;;
12110;SDS011;6119;52.372;8.990;2023-03-01T03:28:14;9.80;;;5.87;;
12110;SDS011;6119;52.372;8.990;2023-03-01T03:31:01;9.40;;;5.73;;
12110;SDS011;6119;52.372;8.990;2023-03-01T03:33:48;7.63;;;5.00;;
12110;SDS011;6119;52.372;8.990;2023-03-01T03:36:36;7.10;;;5.13;;
12110;SDS011;6119;52.372;8.990;2023-03-01T03:39:23;8.43;;;5.10;;
12110;SDS011;6119;52.372;8.990;2023-03-01T03:42:10;9.57;;;5.40;;
12110;SDS011;6119;52.372;8.990;2023-03-01T03:44:56;7.90;;;5.03;;
12110;SDS011;6119;52.372;8.990;2023-03-01T03:47:43;11.13;;;4.83;;
12110;SDS011;6119;52.372;8.990;2023-03-01T03:50:30;10.43;;;4.57;;
12110;SDS011;6119;52.372;8.990;2023-03-01T03:53:18;5.40;;;4.13;;
12110;SDS011;6119;52.372;8.990;2023-03-01T03:56:06;7.37;;;4.80;;
12110;SDS011;6119;52.372;8.990;2023-03-01T03:58:53;7.73;;;4.83;;
12110;SDS011;6119;52.372;8.990;2023-03-01T04:01:39;5.93;;;4.33;;
12110;SDS011;6119;52.372;8.990;2023-03-01T04:04:26;5.47;;;4.40;;
12110;SDS011;6119;52.372;8.990;2023-03-01T04:07:12;7.80;;;4.60;;
12110;SDS011;6119;52.372;8.990;2023-03-01T04:10:00;6.60;;;4.70;;
12110;SDS011;6119;52.372;8.990;2023-03-01T04:12:47;7.67;;;4.53;;
12110;SDS011;6119;52.372;8.990;2023-03-01T04:15:34;5.77;;;4.20;;
12110;SDS011;6119;52.372;8.990;2023-03-01T04:18:21;7.67;;;4.90;;
12110;SDS011;6119;52.372;8.990;2023-03-01T04:21:09;8.40;;;4.90;;
12110;SDS011;6119;52.372;8.990;2023-03-01T04:23:56;9.50;;;4.80;;
12110;SDS011;6119;52.372;8.990;2023-03-01T04:26:43;6.40;;;4.97;;
12110;SDS011;6119;52.372;8.990;2023-03-01T04:29:30;7.50;;;4.47;;
12110;SDS011;6119;52.372;8.990;2023-03-01T04:32:17;8.87;;;5.60;;
12110;SDS011;6119;52.372;8.990;2023-03-01T04:35:04;7.17;;;5.23;;
12110;SDS011;6119;52.372;8.990;2023-03-01T04:37:51;9.33;;;5.40;;
12110;SDS011;6119;52.372;8.990;2023-03-01T04:40:37;7.57;;;5.60;;
12110;SDS011;6119;52.372;8.990;2023-03-01T04:43:25;7.47;;;4.87;;
12110;SDS011;6119;52.372;8.990;2023-03-01T04:46:12;8.93;;;5.03;;
12110;SDS011;6119;52.372;8.990;2023-03-01T04:49:01;7.17;;;4.90;;
12110;SDS011;6119;52.372;8.990;2023-03-01T04:51:47;7.80;;;5.30;;
12110;SDS011;6119;52.372;8.990;2023-03-01T04:54:34;5.00;;;4.47;;
12110;SDS011;6119;52.372;8.990;2023-03-01T04:57:21;5.97;;;4.73;;
12110;SDS011;6119;52.372;8.990;2023-03-01T05:00:10;6.57;;;4.63;;
12110;SDS011;6119;52.372;8.990;2023-03-01T05:03:05;7.07;;;5.03;;
12110;SDS011;6119;52.372;8.990;2023-03-01T05:05:52;8.33;;;4.57;;
12110;SDS011;6119;52.372;8.990;2023-03-01T05:08:39;6.90;;;5.33;;
12110;SDS011;6119;52.372;8.990;2023-03-01T05:11:26;6.43;;;5.00;;
12110;SDS011;6119;52.372;8.990;2023-03-01T05:14:18;8.83;;;4.97;;
12110;SDS011;6119;52.372;8.990;2023-03-01T05:17:05;6.73;;;4.60;;
12110;SDS011;6119;52.372;8.990;2023-03-01T05:19:52;7.00;;;4.77;;
12110;SDS011;6119;52.372;8.990;2023-03-01T05:22:40;8.73;;;4.77;;
12110;SDS011;6119;52.372;8.990;2023-03-01T05:25:26;6.57;;;4.57;;
12110;SDS011;6119;52.372;8.990;2023-03-01T05:28:18;5.43;;;4.53;;
12110;SDS011;6119;52.372;8.990;2023-03-01T05:31:05;6.07;;;4.20;;
12110;SDS011;6119;52.372;8.990;2023-03-01T05:33:55;7.23;;;4.40;;
12110;SDS011;6119;52.372;8.990;2023-03-01T05:36:42;7.40;;;4.93;;
12110;SDS011;6119;52.372;8.990;2023-03-01T05:39:29;7.23;;;4.57;;
12110;SDS011;6119;52.372;8.990;2023-03-01T05:42:16;6.10;;;4.30;;
12110;SDS011;6119;52.372;8.990;2023-03-01T05:45:03;7.63;;;4.70;;
12110;SDS011;6119;52.372;8.990;2023-03-01T05:47:54;6.10;;;4.73;;
12110;SDS011;6119;52.372;8.990;2023-03-01T05:50:43;11.93;;;5.13;;
12110;SDS011;6119;52.372;8.990;2023-03-01T05:53:32;6.87;;;5.00;;
12110;SDS011;6119;52.372;8.990;2023-03-01T05:56:18;7.60;;;4.90;;
12110;SDS011;6119;52.372;8.990;2023-03-01T05:59:06;5.70;;;4.83;;
12110;SDS011;6119;52.372;8.990;2023-03-01T06:01:53;7.60;;;5.40;;
12110;SDS011;6119;52.372;8.990;2023-03-01T06:04:40;4.77;;;4.30;;
12110;SDS011;6119;52.372;8.990;2023-03-01T06:07:28;7.57;;;5.03;;
12110;SDS011;6119;52.372;8.990;2023-03-01T06:10:15;7.07;;;4.87;;
12110;SDS011;6119;52.372;8.990;2023-03-01T06:13:03;9.13;;;4.87;;
12110;SDS011;6119;52.372;8.990;2023-03-01T06:15:50;7.17;;;5.13;;
12110;SDS011;6119;52.372;8.990;2023-03-01T06:18:37;6.70;;;5.00;;
12110;SDS011;6119;52.372;8.990;2023-03-01T06:21:24;5.90;;;4.10;;
12110;SDS011;6119;52.372;8.990;2023-03-01T06:24:12;7.07;;;4.80;;
12110;SDS011;6119;52.372;8.990;2023-03-01T06:26:58;7.00;;;4.70;;
12110;SDS011;6119;52.372;8.990;2023-03-01T06:29:45;7.00;;;4.90;;
12110;SDS011;6119;52.372;8.990;2023-03-01T06:32:31;7.30;;;5.27;;
12110;SDS011;6119;52.372;8.990;2023-03-01T06:35:18;13.27;;;5.87;;
12110;SDS011;6119;52.372;8.990;2023-03-01T06:38:05;9.90;;;5.30;;
12110;SDS011;6119;52.372;8.990;2023-03-01T06:40:53;6.70;;;5.07;;
12110;SDS011;6119;52.372;8.990;2023-03-01T06:43:41;8.27;;;5.83;;
12110;SDS011;6119;52.372;8.990;2023-03-01T06:46:27;7.03;;;5.80;;
12110;SDS011;6119;52.372;8.990;2023-03-01T06:49:14;8.37;;;5.40;;
12110;SDS011;6119;52.372;8.990;2023-03-01T06:52:02;9.27;;;6.17;;
12110;SDS011;6119;52.372;8.990;2023-03-01T06:54:48;13.63;;;6.63;;
12110;SDS011;6119;52.372;8.990;2023-03-01T06:57:36;10.63;;;6.10;;
12110;SDS011;6119;52.372;8.990;2023-03-01T07:00:23;10.07;;;6.23;;
12110;SDS011;6119;52.372;8.990;2023-03-01T07:03:10;8.70;;;6.70;;
12110;SDS011;6119;52.372;8.990;2023-03-01T07:05:57;12.73;;;7.77;;
12110;SDS011;6119;52.372;8.990;2023-03-01T07:08:44;10.47;;;7.23;;
12110;SDS011;6119;52.372;8.990;2023-03-01T07:11:30;10.67;;;7.40;;
12110;SDS011;6119;52.372;8.990;2023-03-01T07:14:18;14.97;;;8.70;;
12110;SDS011;6119;52.372;8.990;2023-03-01T07:17:05;12.13;;;8.73;;
12110;SDS011;6119;52.372;8.990;2023-03-01T07:19:51;17.67;;;9.50;;
12110;SDS011;6119;52.372;8.990;2023-03-01T07:22:39;10.43;;;7.80;;
12110;SDS011;6119;52.372;8.990;2023-03-01T07:25:26;12.80;;;7.17;;
12110;SDS011;6119;52.372;8.990;2023-03-01T07:28:12;11.63;;;7.60;;
12110;SDS011;6119;52.372;8.990;2023-03-01T07:31:01;11.30;;;8.03;;
12110;SDS011;6119;52.372;8.990;2023-03-01T07:33:48;9.97;;;7.47;;
12110;SDS011;6119;52.372;8.990;2023-03-01T07:36:34;9.83;;;7.40;;
12110;SDS011;6119;52.372;8.990;2023-03-01T07:39:21;10.77;;;7.10;;
12110;SDS011;6119;52.372;8.990;2023-03-01T07:42:08;12.40;;;7.60;;
12110;SDS011;6119;52.372;8.990;2023-03-01T07:44:55;9.23;;;6.83;;
12110;SDS011;6119;52.372;8.990;2023-03-01T07:47:43;16.37;;;7.40;;
12110;SDS011;6119;52.372;8.990;2023-03-01T07:50:30;10.30;;;6.80;;
12110;SDS011;6119;52.372;8.990;2023-03-01T07:53:16;21.07;;;13.20;;
12110;SDS011;6119;52.372;8.990;2023-03-01T07:56:03;11.00;;;7.30;;
12110;SDS011;6119;52.372;8.990;2023-03-01T07:58:51;8.03;;;6.50;;
12110;SDS011;6119;52.372;8.990;2023-03-01T08:01:37;7.60;;;5.80;;
12110;SDS011;6119;52.372;8.990;2023-03-01T08:04:25;9.07;;;5.83;;
12110;SDS011;6119;52.372;8.990;2023-03-01T08:07:12;9.20;;;6.60;;
12110;SDS011;6119;52.372;8.990;2023-03-01T08:09:59;7.67;;;6.50;;
12110;SDS011;6119;52.372;8.990;2023-03-01T08:12:45;36.87;;;17.70;;
12110;SDS011;6119;52.372;8.990;2023-03-01T08:15:31;15.57;;;9.07;;
12110;SDS011;6119;52.372;8.990;2023-03-01T08:18:18;10.47;;;6.70;;
12110;SDS011;6119;52.372;8.990;2023-03-01T08:21:08;10.37;;;6.97;;
12110;SDS011;6119;52.372;8.990;2023-03-01T08:23:56;8.27;;;5.93;;
12110;SDS011;6119;52.372;8.990;2023-03-01T08:26:42;8.97;;;6.30;;
12110;SDS011;6119;52.372;8.990;2023-03-01T08:29:30;10.20;;;6.93;;
12110;SDS011;6119;52.372;8.990;2023-03-01T08:32:16;14.27;;;8.37;;
12110;SDS011;6119;52.372;8.990;2023-03-01T08:35:04;12.53;;;8.43;;
12110;SDS011;6119;52.372;8.990;2023-03-01T08:37:52;14.87;;;8.47;;
12110;SDS011;6119;52.372;8.990;2023-03-01T08:40:38;12.13;;;7.27;;
12110;SDS011;6119;52.372;8.990;2023-03-01T08:43:25;13.00;;;8.00;;
12110;SDS011;6119;52.372;8.990;2023-03-01T08:46:11;10.70;;;7.40;;
12110;SDS011;6119;52.372;8.990;2023-03-01T08:48:59;13.20;;;8.13;;
12110;SDS011;6119;52.372;8.990;2023-03-01T08:51:46;11.07;;;7.90;;
12110;SDS011;6119;52.372;8.990;2023-03-01T08:54:34;11.00;;;6.70;;
12110;SDS011;6119;52.372;8.990;2023-03-01T08:57:21;11.83;;;6.40;;
12110;SDS011;6119;52.372;8.990;2023-03-01T09:00:08;7.53;;;5.70;;
12110;SDS011;6119;52.372;8.990;2023-03-01T09:02:59;10.17;;;5.67;;
12110;SDS011;6119;52.372;8.990;2023-03-01T09:05:46;8.07;;;5.67;;
12110;SDS011;6119;52.372;8.990;2023-03-01T09:08:34;8.17;;;5.63;;
12110;SDS011;6119;52.372;8.990;2023-03-01T09:11:23;9.53;;;5.70;;
12110;SDS011;6119;52.372;8.990;2023-03-01T09:14:09;9.60;;;5.93;;
12110;SDS011;6119;52.372;8.990;2023-03-01T09:16:57;7.33;;;4.80;;
12110;SDS011;6119;52.372;8.990;2023-03-01T09:19:47;6.37;;;5.20;;
12110;SDS011;6119;52.372;8.990;2023-03-01T09:22:34;6.97;;;5.50;;
12110;SDS011;6119;52.372;8.990;2023-03-01T09:25:20;7.30;;;4.90;;
12110;SDS011;6119;52.372;8.990;2023-03-01T09:28:09;7.23;;;4.80;;
12110;SDS011;6119;52.372;8.990;2023-03-01T09:31:13;8.60;;;4.87;;
12110;SDS011;6119;52.372;8.990;2023-03-01T09:34:00;10.73;;;5.93;;
12110;SDS011;6119;52.372;8.990;2023-03-01T09:36:47;7.37;;;5.00;;
12110;SDS011;6119;52.372;8.990;2023-03-01T09:39:33;8.30;;;4.93;;
12110;SDS011;6119;52.372;8.990;2023-03-01T09:42:20;7.40;;;4.43;;
12110;SDS011;6119;52.372;8.990;2023-03-01T09:45:11;8.70;;;4.93;;
12110;SDS011;6119;52.372;8.990;2023-03-01T09:48:09;6.30;;;4.60;;
12110;SDS011;6119;52.372;8.990;2023-03-01T09:51:00;6.53;;;4.73;;
12110;SDS011;6119;52.372;8.990;2023-03-01T09:53:52;7.27;;;4.20;;
12110;SDS011;6119;52.372;8.990;2023-03-01T09:56:41;6.90;;;4.30;;
12110;SDS011;6119;52.372;8.990;2023-03-01T09:59:35;6.50;;;4.20;;
12110;SDS011;6119;52.372;8.990;2023-03-01T10:02:39;5.33;;;3.57;;
12110;SDS011;6119;52.372;8.990;2023-03-01T10:05:31;5.63;;;3.93;;
12110;SDS011;6119;52.372;8.990;2023-03-01T10:08:33;5.23;;;3.40;;
12110;SDS011;6119;52.372;8.990;2023-03-01T10:11:26;5.47;;;3.93;;
12110;SDS011;6119;52.372;8.990;2023-03-01T10:14:21;5.57;;;4.03;;
12110;SDS011;6119;52.372;8.990;2023-03-01T10:17:18;5.07;;;3.53;;
12110;SDS011;6119;52.372;8.990;2023-03-01T10:20:15;6.33;;;3.90;;
12110;SDS011;6119;52.372;8.990;2023-03-01T10:23:07;4.87;;;3.50;;
12110;SDS011;6119;52.372;8.990;2023-03-01T10:26:07;4.23;;;3.27;;
12110;SDS011;6119;52.372;8.990;2023-03-01T10:29:05;6.67;;;3.93;;
12110;SDS011;6119;52.372;8.990;2023-03-01T10:31:53;6.00;;;4.00;;
12110;SDS011;6119;52.372;8.990;2023-03-01T10:34:41;6.10;;;3.67;;
12110;SDS011;6119;52.372;8.990;2023-03-01T10:37:29;5.70;;;3.57;;
12110;SDS011;6119;52.372;8.990;2023-03-01T10:40:16;6.23;;;4.00;;
12110;SDS011;6119;52.372;8.990;2023-03-01T10:43:04;6.53;;;3.90;;
12110;SDS011;6119;52.372;8.990;2023-03-01T10:45:52;5.17;;;3.23;;
12110;SDS011;6119;52.372;8.990;2023-03-01T10:48:39;7.40;;;4.17;;
12110;SDS011;6119;52.372;8.990;2023-03-01T10:51:25;6.33;;;4.23;;
12110;SDS011;6119;52.372;8.990;2023-03-01T10:54:18;6.30;;;3.80;;
12110;SDS011;6119;52.372;8.990;2023-03-01T10:57:10;4.80;;;3.50;;
12110;SDS011;6119;52.372;8.990;2023-03-01T11:00:16;5.53;;;3.97;;
12110;SDS011;6119;52.372;8.990;2023-03-01T11:03:10;5.80;;;3.37;;
12110;SDS011;6119;52.372;8.990;2023-03-01T11:06:00;6.47;;;4.20;;
12110;SDS011;6119;52.372;8.990;2023-03-01T11:08:49;4.87;;;3.73;;
12110;SDS011;6119;52.372;8.990;2023-03-01T11:11:37;6.37;;;3.53;;
12110;SDS011;6119;52.372;8.990;2023-03-01T11:14:25;6.50;;;3.30;;
12110;SDS011;6119;52.372;8.990;2023-03-01T11:17:15;6.00;;;3.70;;
12110;SDS011;6119;52.372;8.990;2023-03-01T11:20:06;5.97;;;3.57;;
12110;SDS011;6119;52.372;8.990;2023-03-01T11:23:04;6.47;;;3.30;;
12110;SDS011;6119;52.372;8.990;2023-03-01T11:25:56;7.00;;;3.10;;
12110;SDS011;6119;52.372;8.990;2023-03-01T11:28:48;4.97;;;3.17;;
12110;SDS011;6119;52.372;8.990;2023-03-01T11:31:39;4.90;;;2.83;;
12110;SDS011;6119;52.372;8.990;2023-03-01T11:34:42;4.27;;;2.93;;
12110;SDS011;6119;52.372;8.990;2023-03-01T11:37:35;3.37;;;2.40;;
12110;SDS011;6119;52.372;8.990;2023-03-01T11:40:26;6.30;;;3.00;;
12110;SDS011;6119;52.372;8.990;2023-03-01T11:43:19;4.70;;;2.90;;
12110;SDS011;6119;52.372;8.990;2023-03-01T11:46:21;5.23;;;3.07;;
12110;SDS011;6119;52.372;8.990;2023-03-01T11:49:36;5.33;;;3.00;;
12110;SDS011;6119;52.372;8.990;2023-03-01T11:52:37;5.77;;;3.10;;
12110;SDS011;6119;52.372;8.990;2023-03-01T11:55:43;5.72;;;3.60;;
12110;SDS011;6119;52.372;8.990;2023-03-01T11:58:45;6.13;;;3.20;;
12110;SDS011;6119;52.372;8.990;2023-03-01T12:01:50;5.93;;;3.20;;
12110;SDS011;6119;52.372;8.990;2023-03-01T12:04:51;5.13;;;3.83;;
12110;SDS011;6119;52.372;8.990;2023-03-01T12:07:51;4.10;;;2.77;;
12110;SDS011;6119;52.372;8.990;2023-03-01T12:10:43;4.83;;;3.07;;
12110;SDS011;6119;52.372;8.990;2023-03-01T12:17:06;2.73;;;2.47;;
12110;SDS011;6119;52.372;8.990;2023-03-01T12:20:11;4.47;;;2.80;;
12110;SDS011;6119;52.372;8.990;2023-03-01T12:23:20;4.23;;;2.67;;
12110;SDS011;6119;52.372;8.990;2023-03-01T12:26:20;4.07;;;2.67;;
12110;SDS011;6119;52.372;8.990;2023-03-01T12:29:24;3.60;;;2.57;;
12110;SDS011;6119;52.372;8.990;2023-03-01T12:32:18;4.33;;;3.00;;
12110;SDS011;6119;52.372;8.990;2023-03-01T12:35:27;3.80;;;2.73;;
12110;SDS011;6119;52.372;8.990;2023-03-01T12:38:37;7.57;;;2.43;;
12110;SDS011;6119;52.372;8.990;2023-03-01T12:41:31;4.17;;;2.83;;
12110;SDS011;6119;52.372;8.990;2023-03-01T12:44:30;6.03;;;2.47;;
12110;SDS011;6119;52.372;8.990;2023-03-01T12:47:34;3.60;;;2.63;;
12110;SDS011;6119;52.372;8.990;2023-03-01T12:50:35;2.63;;;2.43;;
12110;SDS011;6119;52.372;8.990;2023-03-01T12:53:26;4.30;;;2.50;;
12110;SDS011;6119;52.372;8.990;2023-03-01T12:56:15;3.63;;;2.30;;
12110;SDS011;6119;52.372;8.990;2023-03-01T12:59:06;5.13;;;2.77;;
12110;SDS011;6119;52.372;8.990;2023-03-01T13:02:02;4.63;;;2.40;;
12110;SDS011;6119;52.372;8.990;2023-03-01T13:05:00;4.47;;;3.00;;
12110;SDS011;6119;52.372;8.990;2023-03-01T13:08:04;3.70;;;2.57;;
12110;SDS011;6119;52.372;8.990;2023-03-01T13:11:00;2.53;;;2.03;;
12110;SDS011;6119;52.372;8.990;2023-03-01T13:13:49;3.50;;;2.40;;
12110;SDS011;6119;52.372;8.990;2023-03-01T13:16:39;3.67;;;2.60;;
12110;SDS011;6119;52.372;8.990;2023-03-01T13:19:29;4.70;;;2.60;;
12110;SDS011;6119;52.372;8.990;2023-03-01T13:22:28;3.80;;;2.17;;
12110;SDS011;6119;52.372;8.990;2023-03-01T13:25:17;2.90;;;2.30;;
12110;SDS011;6119;52.372;8.990;2023-03-01T13:37:44;3.40;;;1.90;;
12110;SDS011;6119;52.372;8.990;2023-03-01T13:43:45;2.60;;;2.10;;
12110;SDS011;6119;52.372;8.990;2023-03-01T13:46:33;3.97;;;1.97;;
12110;SDS011;6119;52.372;8.990;2023-03-01T13:49:21;2.90;;;2.07;;
12110;SDS011;6119;52.372;8.990;2023-03-01T13:52:23;2.17;;;1.97;;
12110;SDS011;6119;52.372;8.990;2023-03-01T13:55:23;2.93;;;1.70;;
12110;SDS011;6119;52.372;8.990;2023-03-01T13:58:15;2.07;;;1.87;;
12110;SDS011;6119;52.372;8.990;2023-03-01T14:01:05;3.27;;;2.00;;
12110;SDS011;6119;52.372;8.990;2023-03-01T14:03:53;3.70;;;2.03;;
12110;SDS011;6119;52.372;8.990;2023-03-01T14:06:40;3.03;;;2.37;;
12110;SDS011;6119;52.372;8.990;2023-03-01T14:09:27;2.40;;;1.90;;
12110;SDS011;6119;52.372;8.990;2023-03-01T14:12:21;3.27;;;2.40;;
12110;SDS011;6119;52.372;8.990;2023-03-01T14:15:15;2.33;;;1.73;;
12110;SDS011;6119;52.372;8.990;2023-03-01T14:18:06;4.03;;;2.07;;
12110;SDS011;6119;52.372;8.990;2023-03-01T14:20:58;2.50;;;2.20;;
12110;SDS011;6119;52.372;8.990;2023-03-01T14:23:45;4.30;;;2.27;;
12110;SDS011;6119;52.372;8.990;2023-03-01T14:26:32;3.63;;;2.20;;
12110;SDS011;6119;52.372;8.990;2023-03-01T14:29:34;2.73;;;2.10;;
12110;SDS011;6119;52.372;8.990;2023-03-01T14:32:24;2.30;;;1.70;;
12110;SDS011;6119;52.372;8.990;2023-03-01T14:35:18;3.27;;;2.00;;
12110;SDS011;6119;52.372;8.990;2023-03-01T14:38:19;4.20;;;2.27;;
12110;SDS011;6119;52.372;8.990;2023-03-01T14:41:07;1.93;;;1.70;;
12110;SDS011;6119;52.372;8.990;2023-03-01T14:43:57;3.10;;;1.80;;
12110;SDS011;6119;52.372;8.990;2023-03-01T14:46:47;2.53;;;2.03;;
12110;SDS011;6119;52.372;8.990;2023-03-01T14:49:39;3.63;;;1.90;;
12110;SDS011;6119;52.372;8.990;2023-03-01T14:52:28;3.00;;;2.00;;
12110;SDS011;6119;52.372;8.990;2023-03-01T14:55:20;2.83;;;1.90;;
12110;SDS011;6119;52.372;8.990;2023-03-01T14:58:11;2.33;;;1.80;;
12110;SDS011;6119;52.372;8.990;2023-03-01T15:01:00;3.13;;;2.23;;
12110;SDS011;6119;52.372;8.990;2023-03-01T15:03:50;3.27;;;1.83;;
12110;SDS011;6119;52.372;8.990;2023-03-01T15:06:37;2.97;;;1.80;;
12110;SDS011;6119;52.372;8.990;2023-03-01T15:09:25;1.93;;;1.70;;
12110;SDS011;6119;52.372;8.990;2023-03-01T15:12:24;2.63;;;2.00;;
12110;SDS011;6119;52.372;8.990;2023-03-01T15:15:30;2.77;;;1.93;;
12110;SDS011;6119;52.372;8.990;2023-03-01T15:18:19;2.97;;;1.97;;
12110;SDS011;6119;52.372;8.990;2023-03-01T15:21:15;3.47;;;2.33;;
12110;SDS011;6119;52.372;8.990;2023-03-01T15:24:04;2.73;;;1.97;;
12110;SDS011;6119;52.372;8.990;2023-03-01T15:27:02;3.33;;;1.80;;
12110;SDS011;6119;52.372;8.990;2023-03-01T15:29:52;2.00;;;1.70;;
12110;SDS011;6119;52.372;8.990;2023-03-01T15:32:40;2.30;;;1.67;;
12110;SDS011;6119;52.372;8.990;2023-03-01T15:35:38;3.07;;;1.73;;
12110;SDS011;6119;52.372;8.990;2023-03-01T15:38:30;3.03;;;2.00;;
12110;SDS011;6119;52.372;8.990;2023-03-01T15:41:22;2.67;;;2.10;;
12110;SDS011;6119;52.372;8.990;2023-03-01T15:44:14;3.43;;;2.17;;
12110;SDS011;6119;52.372;8.990;2023-03-01T15:47:03;2.40;;;1.77;;
12110;SDS011;6119;52.372;8.990;2023-03-01T15:50:11;2.87;;;2.07;;
12110;SDS011;6119;52.372;8.990;2023-03-01T15:53:04;2.30;;;1.90;;
12110;SDS011;6119;52.372;8.990;2023-03-01T15:55:57;2.93;;;1.90;;
12110;SDS011;6119;52.372;8.990;2023-03-01T15:58:43;3.43;;;2.00;;
12110;SDS011;6119;52.372;8.990;2023-03-01T16:01:30;2.10;;;1.90;;
12110;SDS011;6119;52.372;8.990;2023-03-01T16:04:19;2.97;;;2.30;;
12110;SDS011;6119;52.372;8.990;2023-03-01T16:07:08;2.37;;;1.77;;
12110;SDS011;6119;52.372;8.990;2023-03-01T16:09:55;2.57;;;1.83;;
12110;SDS011;6119;52.372;8.990;2023-03-01T16:12:43;2.27;;;1.73;;
12110;SDS011;6119;52.372;8.990;2023-03-01T16:15:32;2.63;;;2.37;;
12110;SDS011;6119;52.372;8.990;2023-03-01T16:18:20;2.77;;;2.13;;
12110;SDS011;6119;52.372;8.990;2023-03-01T16:21:10;4.50;;;2.30;;
12110;SDS011;6119;52.372;8.990;2023-03-01T16:24:00;2.60;;;2.23;;
12110;SDS011;6119;52.372;8.990;2023-03-01T16:26:46;3.53;;;2.60;;
12110;SDS011;6119;52.372;8.990;2023-03-01T16:29:34;3.30;;;2.43;;
12110;SDS011;6119;52.372;8.990;2023-03-01T16:32:21;3.03;;;2.17;;
12110;SDS011;6119;52.372;8.990;2023-03-01T16:35:08;3.63;;;2.37;;
12110;SDS011;6119;52.372;8.990;2023-03-01T16:37:56;4.13;;;2.10;;
12110;SDS011;6119;52.372;8.990;2023-03-01T16:40:46;3.57;;;2.27;;
12110;SDS011;6119;52.372;8.990;2023-03-01T16:43:34;3.17;;;2.50;;
12110;SDS011;6119;52.372;8.990;2023-03-01T16:46:23;3.63;;;1.87;;
12110;SDS011;6119;52.372;8.990;2023-03-01T16:49:11;2.77;;;1.97;;
12110;SDS011;6119;52.372;8.990;2023-03-01T16:51:57;2.43;;;1.93;;
12110;SDS011;6119;52.372;8.990;2023-03-01T16:54:44;2.40;;;1.90;;
12110;SDS011;6119;52.372;8.990;2023-03-01T16:57:30;3.83;;;2.20;;
12110;SDS011;6119;52.372;8.990;2023-03-01T17:00:19;4.67;;;1.73;;
12110;SDS011;6119;52.372;8.990;2023-03-01T17:03:08;3.03;;;1.80;;
12110;SDS011;6119;52.372;8.990;2023-03-01T17:05:56;3.20;;;1.80;;
12110;SDS011;6119;52.372;8.990;2023-03-01T17:08:42;2.70;;;1.93;;
12110;SDS011;6119;52.372;8.990;2023-03-01T17:11:29;5.63;;;2.13;;
12110;SDS011;6119;52.372;8.990;2023-03-01T17:14:16;2.23;;;1.93;;
12110;SDS011;6119;52.372;8.990;2023-03-01T17:17:03;4.00;;;2.10;;
12110;SDS011;6119;52.372;8.990;2023-03-01T17:19:50;2.73;;;2.10;;
12110;SDS011;6119;52.372;8.990;2023-03-01T17:22:37;5.20;;;2.70;;
12110;SDS011;6119;52.372;8.990;2023-03-01T17:25:24;4.63;;;2.80;;
12110;SDS011;6119;52.372;8.990;2023-03-01T17:28:11;2.90;;;2.33;;
12110;SDS011;6119;52.372;8.990;2023-03-01T17:30:58;3.40;;;2.40;;
12110;SDS011;6119;52.372;8.990;2023-03-01T17:33:45;3.07;;;2.37;;